首页
METAR-TAF:

METAR-TAF

机场 :

巴吞鲁日, 路易斯安那州, 美国

纬度: 30-32-14N, 经度: 091-08-49W, 海拔: 21米

当前天气观测

该预报发布于16分钟前的05:53 UTC
风速5节,风向东转东北
温度 9°C
湿度 81%
气压 1022 hPa
能見度: 16.1公里
天空无云

METAR: KBTR 240553Z AUTO 07005KT 10SM CLR 09/06 A3018 RMK AO2 SLP218 T00940056 10144 20094 402110094 58008

时间: 00:09 (06:09 UTC)

预报

该预报发布于32分钟前的05:37 UTC
预报有效从24日的 06点(UTC)到 25日的 06点(UTC)
风速5节,风向东转东北
能見度: 10公里
天空无云
从 24日的 1800点(UTC)
风速10节,风向东南
能見度: 10公里
阴天层高于5000英尺
从 25日的 0500点(UTC)
风速12节,风向东南
能見度: 10公里
阴天层高于2500英尺

TAF: KBTR 240537Z 2406/2506 07005KT P6SM SKC FM241800 13010KT P6SM OVC050 FM250500 14012KT P6SM OVC025

超过4000个机场的气象观测和天气预报(METAR&TAF报告)。

可查询的气象台以黄色和红色小点在地图上表示。

将鼠标移到小点上方,可查看气象台名称。

然后点击查看天气观测和预报。

如需切换地图:点击带黑十字的绿色按钮放大地图;点击带横线的绿色按钮缩小地图;或者点击绿色箭头查看邻近地区的地图。


METAR-TAF: